Time;durP1;ratioP1;P1;durP2;ratioP2;P2;SDS_P1;SDS_P2;PMS_P1;PMS_P2;Temp;Humidity;BMP_temperature;BMP_pressure;BME280_temperature;BME280_humidity;BME280_pressure;Samples;Min_cycle;Max_cycle;Signal;HPM_P1;HPM_P2
2021/10/04 00:00:31;;;;;;;3.8;2.9;;;;;;;;;;;;;
2021/10/04 00:02:56;;;;;;;4.2;2.6;;;;;;;;;;;;;
2021/10/04 00:05:23;;;;;;;3.6;2.9;;;;;;;;;;;;;
2021/10/04 00:07:48;;;;;;;3.2;2.7;;;;;;;;;;;;;
2021/10/04 00:10:13;;;;;;;3;2.7;;;;;;;;;;;;;
2021/10/04 00:12:39;;;;;;;3;2.7;;;;;;;;;;;;;
2021/10/04 00:15:04;;;;;;;4.7;3.3;;;;;;;;;;;;;
2021/10/04 00:17:29;;;;;;;3;2.7;;;;;;;;;;;;;
2021/10/04 00:19:54;;;;;;;3.2;2.8;;;;;;;;;;;;;
2021/10/04 00:22:19;;;;;;;3.1;2.7;;;;;;;;;;;;;
2021/10/04 00:24:44;;;;;;;4.5;3;;;;;;;;;;;;;
2021/10/04 00:27:10;;;;;;;3.6;3;;;;;;;;;;;;;
2021/10/04 00:29:35;;;;;;;5;3.2;;;;;;;;;;;;;
2021/10/04 00:32:00;;;;;;;3.1;2.7;;;;;;;;;;;;;
2021/10/04 00:34:25;;;;;;;3.8;2.9;;;;;;;;;;;;;
2021/10/04 00:36:50;;;;;;;3.2;2.9;;;;;;;;;;;;;
2021/10/04 00:39:15;;;;;;;3.9;3;;;;;;;;;;;;;
2021/10/04 00:41:50;;;;;;;4.9;2.8;;;;;;;;;;;;;
2021/10/04 00:44:15;;;;;;;3.9;2.9;;;;;;;;;;;;;
2021/10/04 00:46:41;;;;;;;4.8;2.9;;;;;;;;;;;;;
2021/10/04 00:49:06;;;;;;;4.1;2.8;;;;;;;;;;;;;
2021/10/04 00:51:31;;;;;;;4.7;3.4;;;;;;;;;;;;;
2021/10/04 00:53:56;;;;;;;4.5;3.2;;;;;;;;;;;;;
2021/10/04 00:56:21;;;;;;;3.3;2.9;;;;;;;;;;;;;
2021/10/04 00:58:47;;;;;;;4;3.1;;;;;;;;;;;;;
2021/10/04 01:01:12;;;;;;;5.5;3.2;;;;;;;;;;;;;
2021/10/04 01:03:38;;;;;;;4.8;2.8;;;;;;;;;;;;;
2021/10/04 01:06:03;;;;;;;3.6;3;;;;;;;;;;;;;
2021/10/04 01:08:29;;;;;;;6.1;3.3;;;;;;;;;;;;;
2021/10/04 01:10:54;;;;;;;5.8;3.1;;;;;;;;;;;;;
2021/10/04 01:13:21;;;;;;;3.4;2.8;;;;;;;;;;;;;
2021/10/04 01:15:46;;;;;;;4.8;2.9;;;;;;;;;;;;;
2021/10/04 01:18:12;;;;;;;5;3.1;;;;;;;;;;;;;
2021/10/04 01:20:38;;;;;;;3.9;3;;;;;;;;;;;;;
2021/10/04 01:23:03;;;;;;;4.2;3;;;;;;;;;;;;;
2021/10/04 01:25:28;;;;;;;4.2;3.3;;;;;;;;;;;;;
2021/10/04 01:27:53;;;;;;;3.8;3.3;;;;;;;;;;;;;
2021/10/04 01:30:18;;;;;;;6;3.4;;;;;;;;;;;;;
2021/10/04 01:32:44;;;;;;;4.7;3.6;;;;;;;;;;;;;
2021/10/04 01:35:15;;;;;;;5.1;3.6;;;;;;;;;;;;;
2021/10/04 01:37:34;;;;;;;4.6;3.4;;;;;;;;;;;;;
2021/10/04 01:40:00;;;;;;;5.2;3.6;;;;;;;;;;;;;
2021/10/04 01:42:25;;;;;;;4.2;3.3;;;;;;;;;;;;;
2021/10/04 01:44:50;;;;;;;5.2;3.5;;;;;;;;;;;;;
2021/10/04 01:47:15;;;;;;;6.5;3.7;;;;;;;;;;;;;
2021/10/04 01:49:43;;;;;;;5.8;3.6;;;;;;;;;;;;;
2021/10/04 01:52:05;;;;;;;5.2;3.7;;;;;;;;;;;;;
2021/10/04 01:54:30;;;;;;;4.6;3.2;;;;;;;;;;;;;
2021/10/04 01:56:55;;;;;;;4;3.2;;;;;;;;;;;;;
2021/10/04 01:59:20;;;;;;;3.8;3.1;;;;;;;;;;;;;
2021/10/04 02:01:45;;;;;;;3;2.7;;;;;;;;;;;;;
2021/10/04 02:04:10;;;;;;;3.1;2.7;;;;;;;;;;;;;
2021/10/04 02:06:35;;;;;;;3.3;3;;;;;;;;;;;;;
2021/10/04 02:09:00;;;;;;;2.9;2.4;;;;;;;;;;;;;
2021/10/04 02:11:26;;;;;;;3.7;2.4;;;;;;;;;;;;;
2021/10/04 02:13:51;;;;;;;3.1;2.4;;;;;;;;;;;;;
2021/10/04 02:16:18;;;;;;;2.9;2.1;;;;;;;;;;;;;
2021/10/04 02:18:42;;;;;;;2.8;2.2;;;;;;;;;;;;;
2021/10/04 02:21:07;;;;;;;3.2;2.1;;;;;;;;;;;;;
2021/10/04 02:23:32;;;;;;;2.3;2;;;;;;;;;;;;;
2021/10/04 02:25:57;;;;;;;3.8;2;;;;;;;;;;;;;
2021/10/04 02:28:22;;;;;;;1.7;1.6;;;;;;;;;;;;;
2021/10/04 02:30:47;;;;;;;2.1;1.6;;;;;;;;;;;;;
2021/10/04 02:33:12;;;;;;;2.2;2;;;;;;;;;;;;;
2021/10/04 02:35:38;;;;;;;2.4;2.1;;;;;;;;;;;;;
2021/10/04 02:38:03;;;;;;;3;2;;;;;;;;;;;;;
2021/10/04 02:40:28;;;;;;;3.1;1.9;;;;;;;;;;;;;
2021/10/04 02:42:54;;;;;;;3.4;2;;;;;;;;;;;;;
2021/10/04 02:45:19;;;;;;;3;2.1;;;;;;;;;;;;;
2021/10/04 02:47:44;;;;;;;2.4;1.8;;;;;;;;;;;;;
2021/10/04 02:50:10;;;;;;;3.8;2.3;;;;;;;;;;;;;
2021/10/04 02:52:35;;;;;;;2.4;2;;;;;;;;;;;;;
2021/10/04 02:55:00;;;;;;;3;2.1;;;;;;;;;;;;;
2021/10/04 02:57:25;;;;;;;3.4;1.9;;;;;;;;;;;;;
2021/10/04 02:59:50;;;;;;;2.2;1.8;;;;;;;;;;;;;
2021/10/04 03:02:15;;;;;;;3.1;2.1;;;;;;;;;;;;;
2021/10/04 03:04:40;;;;;;;2.8;2.2;;;;;;;;;;;;;
2021/10/04 03:07:05;;;;;;;2.7;2;;;;;;;;;;;;;
2021/10/04 03:09:30;;;;;;;2.6;2.1;;;;;;;;;;;;;
2021/10/04 03:11:55;;;;;;;3;2;;;;;;;;;;;;;
2021/10/04 03:14:21;;;;;;;2.4;2;;;;;;;;;;;;;
2021/10/04 03:16:46;;;;;;;2.5;2.1;;;;;;;;;;;;;
2021/10/04 03:19:11;;;;;;;3.1;2;;;;;;;;;;;;;
2021/10/04 03:21:36;;;;;;;1.9;1.7;;;;;;;;;;;;;
2021/10/04 03:24:01;;;;;;;2.7;1.9;;;;;;;;;;;;;
2021/10/04 03:26:26;;;;;;;2.2;2;;;;;;;;;;;;;
2021/10/04 03:28:51;;;;;;;2.8;2.3;;;;;;;;;;;;;
2021/10/04 03:31:17;;;;;;;2.1;1.9;;;;;;;;;;;;;
2021/10/04 03:33:42;;;;;;;2.7;2.1;;;;;;;;;;;;;
2021/10/04 03:36:08;;;;;;;4.1;2.1;;;;;;;;;;;;;
2021/10/04 03:38:33;;;;;;;2.3;2.1;;;;;;;;;;;;;
2021/10/04 03:40:59;;;;;;;2.5;2;;;;;;;;;;;;;
2021/10/04 03:43:24;;;;;;;2.9;2.4;;;;;;;;;;;;;
2021/10/04 03:45:50;;;;;;;3.2;2.3;;;;;;;;;;;;;
2021/10/04 03:48:15;;;;;;;3.6;2.5;;;;;;;;;;;;;
2021/10/04 03:50:41;;;;;;;3.1;2.3;;;;;;;;;;;;;
2021/10/04 03:53:06;;;;;;;2.4;2.2;;;;;;;;;;;;;
2021/10/04 03:55:31;;;;;;;3;2.4;;;;;;;;;;;;;
2021/10/04 03:57:56;;;;;;;3.3;2.6;;;;;;;;;;;;;
2021/10/04 04:02:35;;;;;;;2.7;2.2;;;;;;;16.17;79.81934;936.2039;;;;
2021/10/04 04:05:00;;;;;;;2.7;2.3;;;;;;;16.28;79.3877;936.2274;;;;
2021/10/04 04:07:27;;;;;;;3.7;2.8;;;;;;;16.35;79.2373;936.1998;;;;
2021/10/04 04:09:52;;;;;;;2.9;2.1;;;;;;;16.37;79.79785;936.2195;;;;
2021/10/04 04:12:19;;;;;;;2.8;2.4;;;;;;;16.37;79.4502;936.2668;;;;
2021/10/04 04:14:44;;;;;;;2.9;2.5;;;;;;;16.33;79.59473;936.2651;;;;
2021/10/04 04:17:09;;;;;;;3.5;2.5;;;;;;;16.37;79.4502;936.2436;;;;
2021/10/04 04:19:34;;;;;;;3.6;2.7;;;;;;;16.4;79.69824;936.3002;;;;
2021/10/04 04:21:59;;;;;;;4.1;2.5;;;;;;;16.45;79.16406;936.269;;;;
2021/10/04 04:24:24;;;;;;;3;2.5;;;;;;;16.5;79.17285;936.2338;;;;
2021/10/04 04:26:53;;;;;;;3.2;2.6;;;;;;;16.51;78.81836;936.3469;;;;
2021/10/04 04:29:17;;;;;;;3.5;2.6;;;;;;;16.5;78.56055;936.3583;;;;
2021/10/04 04:31:42;;;;;;;2.4;2.2;;;;;;;16.54;78.09277;936.3875;;;;
2021/10/04 04:34:07;;;;;;;4.5;2.5;;;;;;;16.56;77.71484;936.4553;;;;
2021/10/04 04:36:32;;;;;;;3.2;2.4;;;;;;;16.55;77.61914;936.4242;;;;
2021/10/04 04:38:58;;;;;;;2.7;2.3;;;;;;;16.53;77.99805;936.41;;;;
2021/10/04 04:41:23;;;;;;;5.2;2.6;;;;;;;16.56;77.56348;936.2601;;;;
2021/10/04 04:43:48;;;;;;;5.6;2.6;;;;;;;16.58;77.38281;936.2347;;;;
2021/10/04 04:46:13;;;;;;;3.2;2.6;;;;;;;16.56;77.29883;936.3259;;;;
2021/10/04 04:48:38;;;;;;;4.1;2.7;;;;;;;16.58;77.11523;936.2775;;;;
2021/10/04 04:51:03;;;;;;;2.7;2.5;;;;;;;16.58;77.24414;936.2468;;;;
2021/10/04 04:53:28;;;;;;;3.3;2.5;;;;;;;16.45;77.94922;936.2546;;;;
2021/10/04 04:55:55;;;;;;;3.1;2.5;;;;;;;16.53;77.4541;936.3337;;;;
2021/10/04 04:58:21;;;;;;;2.9;2.6;;;;;;;16.55;77.42285;936.3688;;;;
2021/10/04 05:00:45;;;;;;;3.2;2.4;;;;;;;16.51;77.6377;936.4272;;;;
2021/10/04 05:03:11;;;;;;;3.7;2.4;;;;;;;16.5;77.71387;936.4178;;;;
2021/10/04 05:05:38;;;;;;;4.7;2.3;;;;;;;16.49;77.92188;936.4895;;;;
2021/10/04 05:08:03;;;;;;;2.7;2.4;;;;;;;16.48;78.10547;936.4495;;;;
2021/10/04 05:10:28;;;;;;;3.3;2.5;;;;;;;16.51;78.17871;936.47;;;;
2021/10/04 05:12:54;;;;;;;3;2.7;;;;;;;16.54;78.20801;936.4911;;;;
2021/10/04 05:15:23;;;;;;;3.8;2.8;;;;;;;16.53;78.37012;936.4928;;;;
2021/10/04 05:17:50;;;;;;;4.8;2.5;;;;;;;16.51;78.72461;936.4257;;;;
2021/10/04 05:20:15;;;;;;;3;2.7;;;;;;;16.47;79.00586;936.4762;;;;
2021/10/04 05:22:43;;;;;;;3.6;2.7;;;;;;;16.46;79.0166;936.5164;;;;
2021/10/04 05:25:07;;;;;;;4.1;3;;;;;;;16.38;79.25488;936.5931;;;;
2021/10/04 05:27:33;;;;;;;3.6;2.8;;;;;;;16.2;80.31152;936.6163;;;;
2021/10/04 05:29:59;;;;;;;4.9;2.8;;;;;;;16.2;80.26563;936.6099;;;;
2021/10/04 05:32:23;;;;;;;4.7;3.3;;;;;;;16.26;80.11523;936.6606;;;;
2021/10/04 05:34:48;;;;;;;7.6;3.3;;;;;;;16.21;80.9375;936.7206;;;;
2021/10/04 05:37:14;;;;;;;4.2;3.2;;;;;;;16.22;80.78906;936.65;;;;
2021/10/04 05:39:39;;;;;;;5.4;2.6;;;;;;;16.3;80.22559;936.7453;;;;
2021/10/04 05:42:04;;;;;;;3.5;2.9;;;;;;;16.29;80.30371;936.7076;;;;
2021/10/04 05:44:31;;;;;;;4.2;3.1;;;;;;;16.32;79.99805;936.6824;;;;
2021/10/04 05:46:56;;;;;;;4.7;2.8;;;;;;;16.28;80.18652;936.7472;;;;
2021/10/04 05:49:21;;;;;;;3.9;3;;;;;;;16.35;79.85059;936.7221;;;;
2021/10/04 05:51:47;;;;;;;4.9;2.9;;;;;;;16.39;79.55957;936.7206;;;;
2021/10/04 05:54:12;;;;;;;4.3;3.6;;;;;;;16.4;79.45508;936.6908;;;;
2021/10/04 05:56:37;;;;;;;4;2.9;;;;;;;16.28;80.09375;936.6854;;;;
2021/10/04 05:59:04;;;;;;;3.2;2.8;;;;;;;16.26;80.21875;936.7933;;;;
2021/10/04 06:01:29;;;;;;;3.8;3.2;;;;;;;16.19;80.81738;936.8237;;;;
2021/10/04 06:03:55;;;;;;;4.5;2.9;;;;;;;16.15;81.09961;936.7296;;;;
2021/10/04 06:06:20;;;;;;;4.6;3.1;;;;;;;16.27;80.39258;936.7867;;;;
2021/10/04 06:08:48;;;;;;;4;2.8;;;;;;;16.34;79.9082;936.7222;;;;
2021/10/04 06:11:13;;;;;;;5;3;;;;;;;16.32;79.70801;936.843;;;;
2021/10/04 06:13:38;;;;;;;4;3.4;;;;;;;16.22;80.30176;936.851;;;;
2021/10/04 06:16:03;;;;;;;5;3.2;;;;;;;16.18;80.2041;936.8231;;;;
2021/10/04 06:18:29;;;;;;;3.3;2.8;;;;;;;16.13;80.25391;936.8655;;;;
2021/10/04 06:20:54;;;;;;;2.9;2.6;;;;;;;16.09;79.87402;936.9384;;;;
2021/10/04 06:23:21;;;;;;;3.3;2.5;;;;;;;16.17;79.62109;936.992;;;;
2021/10/04 06:25:46;;;;;;;4.5;2.6;;;;;;;16.06;80.19238;937.0466;;;;
2021/10/04 06:28:11;;;;;;;3.2;2.7;;;;;;;16.08;79.73535;937.0744;;;;
2021/10/04 06:30:37;;;;;;;3.9;2.3;;;;;;;16.03;80.10547;937.088;;;;
2021/10/04 06:33:04;;;;;;;5.3;2.2;;;;;;;15.97;80.69629;936.9888;;;;
2021/10/04 06:35:29;;;;;;;3.2;2.7;;;;;;;16;80.26367;937.0212;;;;
2021/10/04 06:37:55;;;;;;;3.4;2.5;;;;;;;16.1;79.83105;937.0516;;;;
2021/10/04 06:40:19;;;;;;;3;2.5;;;;;;;16.17;79.29883;937.0803;;;;
2021/10/04 06:42:45;;;;;;;4.1;2.6;;;;;;;16.12;79.51074;937.0955;;;;
2021/10/04 06:45:10;;;;;;;3.7;2.5;;;;;;;16.12;79.85742;937.0745;;;;
2021/10/04 06:47:39;;;;;;;3.7;2.6;;;;;;;16.12;80.32031;937.118;;;;
2021/10/04 06:50:04;;;;;;;3.6;2.8;;;;;;;16.2;79.88184;937.1144;;;;
2021/10/04 06:52:29;;;;;;;4.1;2.6;;;;;;;16.17;80.05078;937.1286;;;;
2021/10/04 06:54:56;;;;;;;3;2.5;;;;;;;16.16;79.95605;937.1199;;;;
2021/10/04 06:57:20;;;;;;;4.1;2.6;;;;;;;16.23;79.68066;937.165;;;;
2021/10/04 06:59:45;;;;;;;3.8;2.7;;;;;;;16.04;80.30371;937.217;;;;
2021/10/04 07:02:11;;;;;;;5.3;2.8;;;;;;;15.93;80.73633;937.2004;;;;
2021/10/04 07:04:36;;;;;;;4;3;;;;;;;15.98;79.68262;937.2039;;;;
2021/10/04 07:07:03;;;;;;;3.6;2.6;;;;;;;16.11;78.67578;937.2137;;;;
2021/10/04 07:09:28;;;;;;;4.7;2.5;;;;;;;16.01;78.32129;937.2155;;;;
2021/10/04 07:12:33;;;;;;;6;2.4;;;;;;;15.9;77.64453;937.4595;;;;
2021/10/04 07:15:00;;;;;;;3.5;2.3;;;;;;;15.94;76.79395;937.561;;;;
2021/10/04 07:17:25;;;;;;;4.1;2.1;;;;;;;15.78;76.85938;937.6011;;;;
2021/10/04 07:19:50;;;;;;;3.2;2;;;;;;;15.65;77.02246;937.6668;;;;
2021/10/04 07:22:16;;;;;;;2.1;1.9;;;;;;;15.72;76.07422;937.7224;;;;
2021/10/04 07:24:41;;;;;;;3.1;1.9;;;;;;;15.71;76.26953;937.6775;;;;
2021/10/04 07:27:08;;;;;;;2.5;2;;;;;;;15.77;75.62109;937.7651;;;;
2021/10/04 07:29:33;;;;;;;2.2;1.9;;;;;;;15.58;76.14355;937.7584;;;;
2021/10/04 07:32:00;;;;;;;2.2;1.9;;;;;;;15.6;75.92676;937.7177;;;;
2021/10/04 07:34:24;;;;;;;1.9;1.7;;;;;;;15.57;76.05859;937.7883;;;;
2021/10/04 07:36:49;;;;;;;2.2;1.7;;;;;;;15.53;75.69434;937.8064;;;;
2021/10/04 07:39:15;;;;;;;2.1;1.9;;;;;;;15.34;76.93164;937.7767;;;;
2021/10/04 07:41:39;;;;;;;2.7;1.8;;;;;;;15.42;76.58984;937.6871;;;;
2021/10/04 07:44:04;;;;;;;4.5;2;;;;;;;15.59;76.07715;937.6559;;;;
2021/10/04 07:46:29;;;;;;;2.8;1.7;;;;;;;15.68;75.4209;937.6826;;;;
2021/10/04 07:48:55;;;;;;;2.6;1.8;;;;;;;15.66;75.64746;937.7133;;;;
2021/10/04 07:51:21;;;;;;;2.6;1.8;;;;;;;15.68;75.33984;937.8503;;;;
2021/10/04 07:53:48;;;;;;;3.6;2;;;;;;;15.65;74.87305;938;;;;
2021/10/04 07:56:12;;;;;;;3.6;1.8;;;;;;;15.56;75.83984;938.063;;;;
2021/10/04 07:58:38;;;;;;;2.5;1.8;;;;;;;15.55;75.39941;938.0133;;;;
2021/10/04 08:01:05;;;;;;;1.6;1.5;;;;;;;15.4;76.08887;938.1549;;;;
2021/10/04 08:03:30;;;;;;;3.9;1.5;;;;;;;15.47;75.73145;938.144;;;;
2021/10/04 08:05:55;;;;;;;2;1.6;;;;;;;15.5;75.78223;938.2128;;;;
2021/10/04 08:08:21;;;;;;;3.1;1.6;;;;;;;15.54;75.88086;938.2678;;;;
2021/10/04 08:10:48;;;;;;;2.6;1.7;;;;;;;15.5;75.86328;938.3292;;;;
2021/10/04 08:13:29;;;;;;;3.6;1.6;;;;;;;15.52;75.94922;938.3033;;;;
2021/10/04 08:15:56;;;;;;;3.1;1.5;;;;;;;15.38;75.79688;938.2737;;;;
2021/10/04 08:18:21;;;;;;;6.1;1.9;;;;;;;15.38;76.29297;938.334;;;;
2021/10/04 08:20:48;;;;;;;2.4;1.6;;;;;;;15.49;75.41113;938.3301;;;;
2021/10/04 08:23:20;;;;;;;3;1.7;;;;;;;15.24;75.91211;938.4932;;;;
2021/10/04 08:25:39;;;;;;;3.7;1.7;;;;;;;15.24;76.49902;938.4756;;;;
2021/10/04 08:28:04;;;;;;;3.9;1.4;;;;;;;15.38;75.80859;938.524;;;;
2021/10/04 08:30:31;;;;;;;1.6;1.5;;;;;;;15.27;75.83594;938.5026;;;;
2021/10/04 08:32:55;;;;;;;1.9;1.5;;;;;;;15.22;76.25293;938.5231;;;;
2021/10/04 08:35:20;;;;;;;4.2;1.4;;;;;;;15.38;75.16016;938.468;;;;
2021/10/04 08:37:45;;;;;;;2.4;1.5;;;;;;;15.33;75.71777;938.4523;;;;
2021/10/04 08:40:11;;;;;;;1.5;1.4;;;;;;;15.34;75.08594;938.4266;;;;
2021/10/04 08:42:36;;;;;;;3;1.4;;;;;;;15.41;74.72754;938.4412;;;;
2021/10/04 08:45:01;;;;;;;6.1;1.8;;;;;;;15.44;74.81445;938.4364;;;;
2021/10/04 08:47:27;;;;;;;3.2;1.8;;;;;;;15.5;75.10156;938.472;;;;
2021/10/04 08:49:51;;;;;;;4.3;1.6;;;;;;;15.58;74.35156;938.5531;;;;
2021/10/04 08:52:16;;;;;;;2.2;1.6;;;;;;;15.61;73.73535;938.6077;;;;
2021/10/04 08:54:41;;;;;;;2.5;1.6;;;;;;;15.52;74.57324;938.6083;;;;
2021/10/04 08:57:07;;;;;;;2.6;1.7;;;;;;;15.54;74.38086;938.6337;;;;
2021/10/04 08:59:32;;;;;;;3.1;1.5;;;;;;;15.59;74.7832;938.7508;;;;
2021/10/04 09:01:57;;;;;;;2.1;1.5;;;;;;;15.53;74.77246;938.7405;;;;
2021/10/04 09:04:22;;;;;;;5.7;1.9;;;;;;;15.5;75.14746;938.8267;;;;
2021/10/04 09:06:48;;;;;;;3.5;1.8;;;;;;;15.51;75.53027;938.8443;;;;
2021/10/04 09:09:13;;;;;;;3.2;1.7;;;;;;;15.59;75.04688;938.8455;;;;
2021/10/04 09:11:38;;;;;;;3.7;1.6;;;;;;;15.56;75.27246;938.8045;;;;
2021/10/04 09:14:03;;;;;;;2.5;1.8;;;;;;;15.38;76.55762;938.8917;;;;
2021/10/04 09:16:29;;;;;;;1.4;1.3;;;;;;;15.47;75.38477;938.8872;;;;
2021/10/04 09:18:55;;;;;;;2.4;1.6;;;;;;;15.46;75.46289;938.9636;;;;
2021/10/04 09:21:19;;;;;;;2;1.4;;;;;;;15.44;75.05762;939.0311;;;;
2021/10/04 09:23:48;;;;;;;4.2;1.7;;;;;;;15.48;75.22363;939.0187;;;;
2021/10/04 09:26:09;;;;;;;2.1;1.3;;;;;;;15.64;74.58105;938.912;;;;
2021/10/04 09:28:34;;;;;;;3.7;1.3;;;;;;;15.63;74.39453;939.0115;;;;
2021/10/04 09:31:01;;;;;;;2.2;1.5;;;;;;;15.62;74.14063;939.039;;;;
2021/10/04 09:33:26;;;;;;;5.4;1.4;;;;;;;15.56;74.40723;939.116;;;;
2021/10/04 09:35:56;;;;;;;2.1;1.4;;;;;;;15.57;74.81348;939.087;;;;
2021/10/04 09:38:23;;;;;;;1.8;1.4;;;;;;;15.43;74.91504;939.1403;;;;
2021/10/04 09:40:47;;;;;;;1.5;1.1;;;;;;;15.1;76.35938;939.1726;;;;
2021/10/04 09:43:13;;;;;;;2;1.5;;;;;;;15.25;76.31543;939.2248;;;;
2021/10/04 09:45:38;;;;;;;1.9;1.3;;;;;;;15.44;75.81738;939.2742;;;;
2021/10/04 09:48:03;;;;;;;1.6;1.3;;;;;;;15.4;76.26172;939.2574;;;;
2021/10/04 09:50:29;;;;;;;1.7;1.2;;;;;;;15.43;76.17578;939.2534;;;;
2021/10/04 09:52:54;;;;;;;1.8;1.4;;;;;;;15.56;75.3418;939.3119;;;;
2021/10/04 09:55:20;;;;;;;1.6;1.3;;;;;;;15.69;75.0293;939.329;;;;
2021/10/04 09:57:54;;;;;;;1.8;1.1;;;;;;;15.7;75.09082;939.2912;;;;
2021/10/04 10:00:19;;;;;;;1.6;1.3;;;;;;;15.69;74.89063;939.3756;;;;
2021/10/04 10:02:44;;;;;;;2.2;1.4;;;;;;;15.64;75.2627;939.4266;;;;
2021/10/04 10:05:12;;;;;;;1.5;1.4;;;;;;;15.63;75.14746;939.3608;;;;
2021/10/04 10:07:37;;;;;;;2.5;1.4;;;;;;;15.58;75.1377;939.4136;;;;
2021/10/04 10:10:02;;;;;;;8.8;3.6;;;;;;;15.75;76.42578;939.3903;;;;
2021/10/04 10:12:27;;;;;;;2.2;1.5;;;;;;;15.85;73.94824;939.3254;;;;
2021/10/04 10:14:52;;;;;;;2.4;1.5;;;;;;;15.76;74.18652;939.2986;;;;
2021/10/04 10:17:17;;;;;;;1.6;1.5;;;;;;;15.81;74.16016;939.307;;;;
2021/10/04 10:19:43;;;;;;;1.4;1.2;;;;;;;15.61;75.16406;939.3823;;;;
2021/10/04 10:22:08;;;;;;;2.2;1.4;;;;;;;15.64;75.22949;939.4531;;;;
2021/10/04 10:24:33;;;;;;;1.8;1.3;;;;;;;15.8;74.61035;939.3409;;;;
2021/10/04 10:26:58;;;;;;;2.7;1.6;;;;;;;15.9;74.56836;939.2946;;;;
2021/10/04 10:29:24;;;;;;;2.1;1.5;;;;;;;15.84;75.18359;939.4589;;;;
2021/10/04 10:31:49;;;;;;;2.1;1.5;;;;;;;15.6;76.41211;939.5582;;;;
2021/10/04 10:34:14;;;;;;;4.8;1.9;;;;;;;15.74;75.61523;939.4442;;;;
2021/10/04 10:36:39;;;;;;;1.9;1.6;;;;;;;15.62;76.30078;939.4829;;;;
2021/10/04 10:39:05;;;;;;;2.8;1.4;;;;;;;15.76;75.71191;939.5042;;;;
2021/10/04 10:41:30;;;;;;;3.8;1.5;;;;;;;15.76;75.47949;939.5917;;;;
2021/10/04 10:43:55;;;;;;;1.4;1.3;;;;;;;15.62;75.91992;939.6595;;;;
2021/10/04 10:46:20;;;;;;;1.7;1.3;;;;;;;15.67;75.36133;939.6423;;;;
2021/10/04 10:48:46;;;;;;;2.8;1.4;;;;;;;15.81;74.98047;939.6925;;;;
2021/10/04 10:51:13;;;;;;;1.8;1.5;;;;;;;15.57;76.7998;939.6866;;;;
2021/10/04 10:53:36;;;;;;;1.7;1.6;;;;;;;15.58;76.83594;939.6897;;;;
2021/10/04 10:56:03;;;;;;;1.6;1.3;;;;;;;15.67;76.37793;939.6905;;;;
2021/10/04 10:58:28;;;;;;;3.9;1.5;;;;;;;15.72;75.90234;939.6996;;;;
2021/10/04 11:00:53;;;;;;;3;1.5;;;;;;;15.7;75.44824;939.6917;;;;
2021/10/04 11:03:18;;;;;;;3;1.3;;;;;;;15.69;75.87305;939.7111;;;;
2021/10/04 11:05:45;;;;;;;2.1;1.3;;;;;;;15.75;75.29492;939.6464;;;;
2021/10/04 11:08:10;;;;;;;1.7;1.4;;;;;;;15.49;76.7168;939.6198;;;;
2021/10/04 11:10:35;;;;;;;2;1.4;;;;;;;15.52;76.3877;939.662;;;;
2021/10/04 11:13:00;;;;;;;2.9;1.7;;;;;;;15.67;76.48242;939.7297;;;;
2021/10/04 11:15:25;;;;;;;3.1;1.6;;;;;;;15.55;76.49609;939.7855;;;;
2021/10/04 11:17:50;;;;;;;2;1.4;;;;;;;15.35;78.26074;939.7408;;;;
2021/10/04 11:20:15;;;;;;;2.9;1.5;;;;;;;15.38;78.11621;939.7254;;;;
2021/10/04 11:22:41;;;;;;;1.9;1.4;;;;;;;15.53;76.79199;939.6805;;;;
2021/10/04 11:25:06;;;;;;;2.9;1.2;;;;;;;15.68;76.80762;939.6895;;;;
2021/10/04 11:27:32;;;;;;;2.6;1.5;;;;;;;15.73;76.27246;939.6989;;;;
2021/10/04 11:29:57;;;;;;;3;1.7;;;;;;;15.77;76.38379;939.7386;;;;
2021/10/04 11:32:23;;;;;;;1.4;1.3;;;;;;;15.6;77.38184;939.71;;;;
2021/10/04 11:34:48;;;;;;;1.9;1.6;;;;;;;15.65;77.84277;939.6937;;;;
2021/10/04 11:37:14;;;;;;;2.6;1.7;;;;;;;15.81;77.16504;939.7142;;;;
2021/10/04 11:39:40;;;;;;;1.5;1.4;;;;;;;15.88;76.12598;939.64;;;;
2021/10/04 11:42:06;;;;;;;2.1;1.2;;;;;;;16.12;75.14844;939.6164;;;;
2021/10/04 11:44:30;;;;;;;2.2;1.4;;;;;;;16.32;75.0791;939.6066;;;;
2021/10/04 11:46:55;;;;;;;2.6;1.4;;;;;;;16.21;74.45996;939.6066;;;;
2021/10/04 11:49:20;;;;;;;2.4;1.5;;;;;;;16.37;74.09277;939.5972;;;;
2021/10/04 11:51:49;;;;;;;2.7;1.8;;;;;;;16.39;74.25781;939.5536;;;;
2021/10/04 11:54:10;;;;;;;1.8;1.5;;;;;;;16.49;73.47754;939.5834;;;;
2021/10/04 11:56:35;;;;;;;2.1;1.5;;;;;;;16.29;74.17188;939.5427;;;;
2021/10/04 11:59:01;;;;;;;1.6;1.5;;;;;;;16.16;75.24902;939.567;;;;
2021/10/04 12:01:26;;;;;;;2.5;1.5;;;;;;;16.23;74.84473;939.5047;;;;
2021/10/04 12:03:51;;;;;;;2.4;1.7;;;;;;;16.27;74.67773;939.4022;;;;
2021/10/04 12:06:17;;;;;;;5.7;1.8;;;;;;;16.01;76.00879;939.4059;;;;
2021/10/04 12:08:43;;;;;;;2.3;1.6;;;;;;;16.1;76.31348;939.3683;;;;
2021/10/04 12:11:08;;;;;;;3;1.5;;;;;;;16.15;76.03223;939.3591;;;;
2021/10/04 12:13:34;;;;;;;2;1.4;;;;;;;16.19;75.35938;939.369;;;;
2021/10/04 12:15:59;;;;;;;1.5;1.2;;;;;;;15.95;76.19629;939.3744;;;;
2021/10/04 12:18:24;;;;;;;2.2;1.5;;;;;;;15.96;75.56152;939.2939;;;;
2021/10/04 12:20:49;;;;;;;1.7;1.3;;;;;;;15.64;77.25;939.2805;;;;
2021/10/04 12:23:14;;;;;;;2.3;2;;;;;;;15.76;76.14941;939.1992;;;;
2021/10/04 12:25:46;;;;;;;1.9;1.6;;;;;;;15.96;75.89648;939.2095;;;;
2021/10/04 12:28:15;;;;;;;3.2;1.8;;;;;;;16.1;74.49805;939.2141;;;;
2021/10/04 12:30:36;;;;;;;2.7;1.5;;;;;;;16.05;74.84863;939.0781;;;;
2021/10/04 12:33:02;;;;;;;2.7;1.5;;;;;;;15.94;75.64941;939.1199;;;;
2021/10/04 12:35:27;;;;;;;3.8;1.4;;;;;;;16.07;75.12891;939.1067;;;;
2021/10/04 12:37:52;;;;;;;2.3;1.5;;;;;;;16.05;75.0918;939.0323;;;;
2021/10/04 12:40:59;;;;;;;2.5;1.3;;;;;;;15.93;75.6377;939.0162;;;;
2021/10/04 12:43:24;;;;;;;1.9;1.7;;;;;;;16.15;75.43262;939.0272;;;;
2021/10/04 12:45:49;;;;;;;2.5;1.7;;;;;;;16.31;74.96289;939.0731;;;;
2021/10/04 12:48:14;;;;;;;2.5;1.4;;;;;;;16.44;74.02441;939.1049;;;;
2021/10/04 12:50:39;;;;;;;4.3;1.6;;;;;;;16.17;75.07715;939.1089;;;;
2021/10/04 12:53:04;;;;;;;1.9;1.4;;;;;;;16.2;74.79395;939.0941;;;;
2021/10/04 12:55:30;;;;;;;1.9;1.7;;;;;;;16.04;76.48926;939.0421;;;;
2021/10/04 12:57:55;;;;;;;1.5;1.4;;;;;;;15.88;76.77246;939.0393;;;;
2021/10/04 13:00:44;;;;;;;2;1.8;;;;;;;16.05;76.54688;939.0122;;;;
2021/10/04 13:03:11;;;;;;;4.3;1.9;;;;;;;15.89;77.89551;938.9934;;;;
2021/10/04 13:05:36;;;;;;;2.5;1.5;;;;;;;15.95;77.95313;938.9776;;;;
2021/10/04 13:08:03;;;;;;;1.9;1.7;;;;;;;15.79;79.20703;938.9933;;;;
2021/10/04 13:10:28;;;;;;;2.1;1.7;;;;;;;15.78;78.5;938.946;;;;
2021/10/04 13:13:00;;;;;;;3;1.8;;;;;;;15.48;80.13184;938.985;;;;
2021/10/04 13:15:22;;;;;;;2.4;1.9;;;;;;;15.66;79.27637;939.0209;;;;
2021/10/04 13:17:47;;;;;;;2.1;1.9;;;;;;;15.63;79.95117;939.0237;;;;
2021/10/04 13:20:14;;;;;;;1.9;1.7;;;;;;;15.28;82.1377;939.0994;;;;
2021/10/04 13:22:38;;;;;;;2.1;1.8;;;;;;;15.31;81.13867;939.1177;;;;
2021/10/04 13:25:03;;;;;;;2.3;1.8;;;;;;;15.34;80.74121;939.0926;;;;
2021/10/04 13:27:29;;;;;;;3.8;2;;;;;;;15.5;80.30957;939.1052;;;;
2021/10/04 13:29:55;;;;;;;2.2;1.7;;;;;;;15.38;80.69238;939.1075;;;;
2021/10/04 13:32:19;;;;;;;1.6;1.5;;;;;;;15.4;80.40723;939.1418;;;;
2021/10/04 13:35:10;;;;;;;58.3;3;;;;;;;15.02;81.84668;939.0993;;;;
2021/10/04 13:37:37;;;;;;;1.6;1.5;;;;;;;15.14;81.97461;939.0359;;;;
2021/10/04 13:40:09;;;;;;;2.5;1.7;;;;;;;15.04;82.44043;939.0294;;;;
2021/10/04 13:42:39;;;;;;;1.8;1.7;;;;;;;15.11;82.16504;938.9977;;;;
2021/10/04 13:44:59;;;;;;;1.8;1.5;;;;;;;15.32;81.39648;938.8856;;;;
2021/10/04 13:49:50;;;;;;;3.2;1.9;;;;;;;15.48;80.89551;938.9417;;;;
2021/10/04 13:52:15;;;;;;;2.3;1.9;;;;;;;15.35;81.36816;938.8934;;;;
2021/10/04 13:54:46;;;;;;;2.6;1.8;;;;;;;15.52;80.58984;938.9205;;;;
2021/10/04 13:57:13;;;;;;;1.8;1.7;;;;;;;15.84;79.56152;938.9056;;;;
2021/10/04 13:59:38;;;;;;;2.3;1.8;;;;;;;15.9;79.00879;939.0247;;;;
2021/10/04 14:02:04;;;;;;;2.8;1.9;;;;;;;15.75;79.51074;938.9439;;;;
2021/10/04 14:04:29;;;;;;;2;1.8;;;;;;;15.73;79.11426;938.9208;;;;
2021/10/04 14:06:55;;;;;;;3.3;2;;;;;;;15.38;80.66895;938.9631;;;;
2021/10/04 14:09:20;;;;;;;2.2;2;;;;;;;15.6;80.37402;938.9778;;;;
2021/10/04 14:11:47;;;;;;;2.6;2.1;;;;;;;15.62;80.04395;938.9651;;;;
2021/10/04 14:14:14;;;;;;;2.4;2;;;;;;;15.73;79.55566;938.916;;;;
2021/10/04 14:16:39;;;;;;;2.3;1.9;;;;;;;15.52;81.63086;938.8867;;;;
2021/10/04 14:19:05;;;;;;;2.1;1.8;;;;;;;15.4;80.92676;938.9308;;;;
2021/10/04 14:21:30;;;;;;;3;1.8;;;;;;;15.59;80.02539;938.9033;;;;
2021/10/04 14:23:55;;;;;;;2.2;2;;;;;;;15.72;78.96484;938.8856;;;;
2021/10/04 14:26:24;;;;;;;2.4;1.7;;;;;;;15.8;78.50488;938.8631;;;;
2021/10/04 14:28:45;;;;;;;1.9;1.8;;;;;;;15.62;78.74805;938.8833;;;;
2021/10/04 14:31:11;;;;;;;2.4;1.8;;;;;;;15.45;79.66406;938.7228;;;;
2021/10/04 14:33:37;;;;;;;3.1;2;;;;;;;15.67;79.46289;938.8347;;;;
2021/10/04 14:36:02;;;;;;;2.8;1.9;;;;;;;15.85;78.61719;938.8389;;;;
2021/10/04 14:38:27;;;;;;;2.1;1.9;;;;;;;15.86;78.15625;938.83;;;;
2021/10/04 14:40:54;;;;;;;2.9;1.8;;;;;;;15.75;78.94629;938.8243;;;;
2021/10/04 14:43:19;;;;;;;2.6;1.8;;;;;;;15.79;77.90137;938.8423;;;;
2021/10/04 14:45:45;;;;;;;3.1;2.1;;;;;;;15.62;79.32813;938.8577;;;;
2021/10/04 14:48:10;;;;;;;2.9;2.1;;;;;;;15.62;79.52441;938.8824;;;;
2021/10/04 14:50:36;;;;;;;2.8;2;;;;;;;15.56;79.8125;938.8655;;;;
2021/10/04 14:53:01;;;;;;;2.4;2.2;;;;;;;15.42;80.67773;938.8162;;;;
2021/10/04 14:55:28;;;;;;;2.3;1.9;;;;;;;15.42;81.18359;938.7999;;;;
2021/10/04 14:57:53;;;;;;;3;2.3;;;;;;;15.41;80.71973;938.8272;;;;
2021/10/04 15:00:19;;;;;;;3.2;2.3;;;;;;;15.02;82.6084;938.8058;;;;
2021/10/04 15:02:44;;;;;;;2.5;2.3;;;;;;;14.77;83.8418;938.8766;;;;
2021/10/04 15:05:11;;;;;;;3.8;2.7;;;;;;;14.89;83.73926;938.7783;;;;
2021/10/04 15:07:36;;;;;;;3.1;2.4;;;;;;;14.73;84.27246;938.7773;;;;
2021/10/04 15:10:02;;;;;;;2.7;2.2;;;;;;;14.82;84.15137;938.79;;;;
2021/10/04 15:12:27;;;;;;;3.2;2.5;;;;;;;14.87;84.40234;938.6541;;;;
2021/10/04 15:14:53;;;;;;;3.9;2.5;;;;;;;14.74;85.31055;938.811;;;;
2021/10/04 15:17:19;;;;;;;3.2;2.5;;;;;;;14.75;84.75098;938.802;;;;
2021/10/04 15:19:44;;;;;;;2.9;2.6;;;;;;;;;;;;;
2021/10/04 15:22:09;;;;;;;3.2;2.5;;;;;;;;;;;;;
2021/10/04 15:24:35;;;;;;;2.4;2.2;;;;;;;;;;;;;
2021/10/04 15:26:59;;;;;;;2.6;2.4;;;;;;;;;;;;;
2021/10/04 15:29:25;;;;;;;2.5;2.3;;;;;;;;;;;;;
2021/10/04 15:31:50;;;;;;;3.6;2.5;;;;;;;;;;;;;
2021/10/04 15:34:15;;;;;;;3;2.3;;;;;;;;;;;;;
2021/10/04 15:36:40;;;;;;;2.8;2.6;;;;;;;;;;;;;
2021/10/04 15:39:05;;;;;;;5.1;2.7;;;;;;;;;;;;;
2021/10/04 15:41:30;;;;;;;3;2.7;;;;;;;;;;;;;
2021/10/04 15:43:57;;;;;;;3.9;3.3;;;;;;;;;;;;;
2021/10/04 15:46:23;;;;;;;3.2;2.9;;;;;;;;;;;;;